Time;durP1;ratioP1;P1;durP2;ratioP2;P2;SDS_P1;SDS_P2;PMS_P1;PMS_P2;Temp;Humidity;BMP_temperature;BMP_pressure;BME280_temperature;BME280_humidity;BME280_pressure;Samples;Min_cycle;Max_cycle;Signal;HPM_P1;HPM_P2
2022/11/26 00:01:41;;;;;;;1999.90;999.90;;;;;;;7.45;100.00;101268.81;5003771;28;20441;-73
2022/11/26 00:04:06;;;;;;;1999.90;999.90;;;;;;;7.44;100.00;101261.81;5007471;28;20041;-72
2022/11/26 00:06:37;;;;;;;1999.90;999.90;;;;;;;7.42;100.00;101262.63;5008817;28;20389;-72
2022/11/26 00:09:05;;;;;;;1999.90;999.90;;;;;;;7.43;100.00;101265.28;5004063;28;20041;-73
2022/11/26 00:11:30;;;;;;;1999.90;999.90;;;;;;;7.44;100.00;101267.06;4985610;28;20042;-73
2022/11/26 00:13:56;;;;;;;1999.90;999.90;;;;;;;7.44;100.00;101267.06;5006464;28;20109;-72
2022/11/26 00:16:21;;;;;;;1999.90;999.90;;;;;;;7.46;100.00;101273.19;5004179;28;20050;-73
2022/11/26 00:18:46;;;;;;;1999.90;999.90;;;;;;;7.44;100.00;101267.06;5005156;28;20038;-73
2022/11/26 00:21:24;;;;;;;1999.90;999.90;;;;;;;7.50;100.00;101273.28;5006956;28;20046;-71
2022/11/26 00:23:51;;;;;;;1999.90;999.90;;;;;;;7.52;100.00;101276.81;5003418;28;20512;-72
2022/11/26 00:26:20;;;;;;;1999.90;999.90;;;;;;;7.49;100.00;101268.88;4996395;28;20088;-72
2022/11/26 00:28:55;;;;;;;1999.90;999.90;;;;;;;7.53;100.00;101275.97;5008924;28;20029;-72
2022/11/26 00:31:22;;;;;;;1999.90;999.90;;;;;;;7.50;100.00;101271.53;5008576;28;20034;-72
2022/11/26 00:33:47;;;;;;;1999.90;999.90;;;;;;;7.52;100.00;101272.47;5012264;28;20381;-72
2022/11/26 00:36:19;;;;;;;1999.90;999.90;;;;;;;7.53;100.00;101275.97;5006189;28;20085;-72
2022/11/26 00:38:48;;;;;;;1999.90;999.90;;;;;;;7.49;100.00;101282.00;5007328;28;20096;-72
2022/11/26 00:41:17;;;;;;;1999.90;999.90;;;;;;;7.46;100.00;101281.09;5005996;28;20132;-72
2022/11/26 00:43:43;;;;;;;1999.90;999.90;;;;;;;7.40;100.00;101286.22;4992785;28;20492;-72
2022/11/26 00:46:13;;;;;;;1999.90;999.90;;;;;;;7.45;100.00;101296.84;5008952;28;20053;-73
2022/11/26 00:48:38;;;;;;;1999.90;999.90;;;;;;;7.42;100.00;101294.16;5010741;28;20103;-73
2022/11/26 00:51:03;;;;;;;1999.90;999.90;;;;;;;7.36;100.00;101299.25;5013112;28;20544;-73
2022/11/26 00:53:29;;;;;;;1999.90;999.90;;;;;;;7.35;100.00;101298.38;4987830;28;20026;-73
2022/11/26 00:55:54;;;;;;;1999.90;999.90;;;;;;;7.38;100.00;101302.81;5013082;28;20029;-73
2022/11/26 00:58:22;;;;;;;1999.90;999.90;;;;;;;7.31;100.00;101309.72;5012165;28;20034;-72
2022/11/26 01:00:47;;;;;;;1999.90;999.90;;;;;;;7.34;100.00;101312.38;5011806;28;20049;-73
2022/11/26 01:03:13;;;;;;;1999.90;999.90;;;;;;;7.33;100.00;101310.59;5013076;28;20034;-72
2022/11/26 01:05:38;;;;;;;1999.90;999.90;;;;;;;7.30;100.00;101310.53;5012148;28;20721;-72
2022/11/26 01:08:20;;;;;;;1999.90;999.90;;;;;;;7.24;100.00;101316.56;5012063;28;20109;-72
2022/11/26 01:10:45;;;;;;;1999.90;999.90;;;;;;;7.20;100.00;101311.22;5012666;28;20492;-72
2022/11/26 01:13:11;;;;;;;1999.90;999.90;;;;;;;7.18;100.00;101320.81;5012468;28;20038;-72
2022/11/26 01:15:36;;;;;;;1999.90;999.90;;;;;;;7.18;100.00;101320.81;5011695;28;20411;-72
2022/11/26 01:18:13;;;;;;;1999.90;999.90;;;;;;;7.18;100.00;101324.31;5011557;28;20085;-72
2022/11/26 01:20:39;;;;;;;1999.90;999.90;;;;;;;7.12;100.00;101329.44;5012029;28;20117;-73
2022/11/26 01:23:04;;;;;;;1999.90;999.90;;;;;;;7.09;100.00;101329.38;5012399;28;20117;-73
2022/11/26 01:25:29;;;;;;;1999.90;999.90;;;;;;;7.11;100.00;101329.41;5011630;28;20105;-72
2022/11/26 01:27:55;;;;;;;1999.90;999.90;;;;;;;7.06;100.00;101331.94;5012583;28;20049;-72
2022/11/26 01:30:24;;;;;;;1999.90;999.90;;;;;;;7.05;100.00;101339.75;5012124;28;20034;-72
2022/11/26 01:32:49;;;;;;;1999.90;999.90;;;;;;;7.04;100.00;101338.88;5011187;28;20030;-73
2022/11/26 01:35:20;;;;;;;1999.90;999.90;;;;;;;7.01;100.00;101334.47;5012267;28;20129;-73
2022/11/26 01:37:46;;;;;;;1999.90;999.90;;;;;;;7.04;100.00;101338.88;5012675;28;20034;-73
2022/11/26 01:40:24;;;;;;;1999.90;999.90;;;;;;;7.06;100.00;101336.31;5011925;28;20252;-72
2022/11/26 01:42:52;;;;;;;1999.90;999.90;;;;;;;7.06;100.00;101338.94;5004953;28;20527;-73
2022/11/26 01:45:21;;;;;;;1999.90;999.90;;;;;;;7.10;100.00;101343.38;5002956;28;20042;-72
2022/11/26 01:47:47;;;;;;;1999.90;999.90;;;;;;;7.09;100.00;101341.63;5002695;28;20463;-73
2022/11/26 01:51:14;;;;;;;1999.90;999.90;;;;;;;7.10;100.00;101341.66;5004762;28;20033;-73
2022/11/26 01:53:41;;;;;;;1999.90;999.90;;;;;;;7.10;100.00;101348.63;4945789;28;20046;-73
2022/11/26 01:56:35;;;;;;;1999.90;999.90;;;;;;;7.11;100.00;101351.28;5000819;28;20400;-74
2022/11/26 01:59:20;;;;;;;1999.90;999.90;;;;;;;7.13;100.00;101353.97;5023384;22;20025;-75
2022/11/26 02:01:47;;;;;;;1999.90;999.90;;;;;;;7.15;100.00;101362.72;5029344;28;20042;-75
2022/11/26 02:04:17;;;;;;;1999.90;999.90;;;;;;;7.11;100.00;101361.78;5024922;28;20047;-75
2022/11/26 02:06:45;;;;;;;1999.90;999.90;;;;;;;7.13;100.00;101367.09;5026217;28;20033;-75
2022/11/26 02:09:11;;;;;;;1999.90;999.90;;;;;;;7.14;100.00;101367.09;5024101;28;20480;-75
2022/11/26 02:11:37;;;;;;;1999.90;999.90;;;;;;;7.18;100.00;101366.34;5021579;28;20092;-75
2022/11/26 02:14:07;;;;;;;1999.90;999.90;;;;;;;7.14;100.00;101377.59;5006867;28;20489;-75
2022/11/26 02:16:54;;;;;;;1999.90;999.90;;;;;;;7.17;100.00;101377.66;5026809;28;20033;-75
2022/11/26 02:20:02;;;;;;;1999.90;999.90;;;;;;;7.19;100.00;101375.09;5023503;28;20041;-75
2022/11/26 02:22:49;;;;;;;1999.90;999.90;;;;;;;7.19;100.00;101375.09;5022116;28;20156;-75
2022/11/26 02:25:59;;;;;;;1999.90;999.90;;;;;;;7.22;100.00;101383.91;5023947;28;20051;-75
2022/11/26 02:28:43;;;;;;;1999.90;999.90;;;;;;;7.24;100.00;101378.69;5032792;28;20052;-76
2022/11/26 02:31:13;;;;;;;1999.90;999.90;;;;;;;7.27;100.00;101385.75;5019952;28;20112;-75
2022/11/26 02:33:47;;;;;;;1999.90;999.90;;;;;;;7.25;100.00;101390.97;5030216;28;20061;-75
2022/11/26 02:36:19;;;;;;;1999.90;999.90;;;;;;;7.21;100.00;101391.75;5025803;28;20039;-75
2022/11/26 02:38:45;;;;;;;1999.90;999.90;;;;;;;7.18;100.00;101387.34;5023700;28;20029;-75
2022/11/26 02:41:10;;;;;;;1999.90;999.90;;;;;;;7.16;100.00;101393.41;5020961;28;20407;-75
2022/11/26 02:43:38;;;;;;;1999.90;999.90;;;;;;;7.19;100.00;101390.84;5022591;28;20037;-75
2022/11/26 02:46:10;;;;;;;1999.90;999.90;;;;;;;7.23;100.00;101397.91;5023049;28;20032;-75
2022/11/26 02:48:40;;;;;;;1999.90;999.90;;;;;;;7.22;100.00;101401.41;5020354;28;20057;-75
2022/11/26 02:51:21;;;;;;;1999.90;999.90;;;;;;;7.25;100.00;101406.72;5022660;28;20454;-75
2022/11/26 02:53:49;;;;;;;1999.90;999.90;;;;;;;7.28;100.00;101409.41;5023595;28;20255;-75
2022/11/26 02:56:23;;;;;;;1999.90;999.90;;;;;;;7.30;100.00;101405.06;5020557;28;20137;-75
2022/11/26 02:58:52;;;;;;;1999.90;999.90;;;;;;;7.30;100.00;101405.06;5021689;28;20087;-75
2022/11/26 03:01:31;;;;;;;1999.90;999.90;;;;;;;7.35;100.00;101413.94;5020945;28;20434;-75
2022/11/26 03:04:06;;;;;;;1999.90;999.90;;;;;;;7.34;100.00;101412.19;5022298;28;20512;-75
2022/11/26 03:06:33;;;;;;;1999.90;999.90;;;;;;;7.41;100.00;101419.34;5026425;28;20442;-75
2022/11/26 03:08:59;;;;;;;1999.90;999.90;;;;;;;7.39;100.00;101425.41;5022330;28;20030;-75
2022/11/26 03:11:25;;;;;;;1999.90;999.90;;;;;;;7.39;100.00;101425.41;5021617;28;20496;-75
2022/11/26 03:13:51;;;;;;;1999.90;999.90;;;;;;;7.37;100.00;101419.22;5020749;28;20034;-75
2022/11/26 03:16:16;;;;;;;1999.90;999.90;;;;;;;7.36;100.00;101418.34;5022898;28;20073;-75
2022/11/26 03:18:41;;;;;;;1999.90;999.90;;;;;;;7.35;100.00;101432.31;5023049;28;20029;-75
2022/11/26 03:21:07;;;;;;;1999.90;999.90;;;;;;;7.38;100.00;101437.63;5019990;28;20034;-75
2022/11/26 03:23:33;;;;;;;1999.90;999.90;;;;;;;7.42;100.00;101433.34;5021438;28;20033;-75
2022/11/26 03:25:58;;;;;;;1999.90;999.90;;;;;;;7.39;100.00;101430.66;5020884;28;20084;-76
2022/11/26 03:28:23;;;;;;;1999.90;999.90;;;;;;;7.35;100.00;101444.56;5020844;28;20052;-75
2022/11/26 03:30:50;;;;;;;1999.90;999.90;;;;;;;7.32;100.00;101450.63;5018938;28;20030;-75
2022/11/26 03:33:16;;;;;;;1999.90;999.90;;;;;;;7.34;100.00;101448.94;5022976;28;20037;-75
2022/11/26 03:35:41;;;;;;;1999.90;999.90;;;;;;;7.35;100.00;101455.06;5020036;28;20030;-76
2022/11/26 03:38:06;;;;;;;1999.90;999.90;;;;;;;7.40;100.00;101450.81;5023660;28;20124;-76
2022/11/26 03:40:32;;;;;;;1999.90;999.90;;;;;;;7.43;100.00;101450.88;5021501;28;20029;-76
2022/11/26 03:42:57;;;;;;;1999.90;999.90;;;;;;;7.41;100.00;101466.63;5021256;28;20050;-76
2022/11/26 03:45:22;;;;;;;1999.90;999.90;;;;;;;7.42;100.00;101450.00;5020277;28;20117;-76
2022/11/26 03:47:48;;;;;;;1999.90;999.90;;;;;;;7.41;100.00;101448.22;5022871;28;20034;-76
2022/11/26 03:50:13;;;;;;;1999.90;999.90;;;;;;;7.34;100.00;101448.94;5026453;28;20041;-76
2022/11/26 03:52:38;;;;;;;1999.90;999.90;;;;;;;7.25;100.00;101459.22;5022486;28;20564;-76
2022/11/26 03:55:04;;;;;;;1999.90;999.90;;;;;;;7.19;100.00;101454.72;5020336;28;20655;-76
2022/11/26 03:57:29;;;;;;;1999.90;999.90;;;;;;;7.13;100.00;101457.22;5020907;28;20044;-75
2022/11/26 03:59:55;;;;;;;1999.90;999.90;;;;;;;7.18;100.00;101465.22;5021780;28;20042;-75
2022/11/26 04:02:20;;;;;;;1999.90;999.90;;;;;;;7.18;100.00;101468.72;5022197;28;20057;-75
2022/11/26 04:04:45;;;;;;;1999.90;999.90;;;;;;;7.14;100.00;101463.34;5025666;28;20602;-76
2022/11/26 04:07:11;;;;;;;1999.90;999.90;;;;;;;7.12;100.00;101463.31;5023228;28;20033;-75
2022/11/26 04:09:36;;;;;;;1999.90;999.90;;;;;;;7.09;100.00;101471.13;5022083;28;20037;-75
2022/11/26 04:12:01;;;;;;;1999.90;999.90;;;;;;;7.09;100.00;101475.50;5020314;28;20037;-75
2022/11/26 04:14:27;;;;;;;1999.90;999.90;;;;;;;7.10;100.00;101480.78;5020874;28;20453;-75
2022/11/26 04:16:52;;;;;;;1999.90;999.90;;;;;;;7.16;100.00;101475.66;5022215;28;20029;-75
2022/11/26 04:19:17;;;;;;;1999.90;999.90;;;;;;;7.20;100.00;101477.53;5021882;28;20029;-76
2022/11/26 04:21:43;;;;;;;1999.90;999.90;;;;;;;7.21;100.00;101478.41;5019247;28;20044;-76
2022/11/26 04:24:08;;;;;;;1999.90;999.90;;;;;;;7.29;100.00;101479.47;5022236;28;20530;-75
2022/11/26 04:26:33;;;;;;;1999.90;999.90;;;;;;;7.34;100.00;101485.72;5019544;28;20409;-76
2022/11/26 04:28:59;;;;;;;1999.90;999.90;;;;;;;7.38;100.00;101482.28;5020942;28;20095;-76
2022/11/26 04:31:24;;;;;;;1999.90;999.90;;;;;;;7.36;100.00;101489.25;5021170;28;20488;-76
2022/11/26 04:33:49;;;;;;;1999.90;999.90;;;;;;;7.43;100.00;101500.78;5020039;28;20520;-76
2022/11/26 04:36:15;;;;;;;1999.90;999.90;;;;;;;7.44;100.00;101502.53;5027160;28;20041;-76
2022/11/26 04:38:40;;;;;;;1999.90;999.90;;;;;;;7.43;100.00;101501.66;5026389;28;20121;-76
2022/11/26 04:41:05;;;;;;;1999.90;999.90;;;;;;;7.41;100.00;101512.97;5023024;28;20078;-76
2022/11/26 04:43:31;;;;;;;1999.90;999.90;;;;;;;7.32;100.00;101516.28;5024965;28;20044;-75
2022/11/26 04:45:56;;;;;;;1999.90;999.90;;;;;;;7.28;100.00;101521.44;5023873;28;20038;-76
2022/11/26 04:48:21;;;;;;;1999.90;999.90;;;;;;;7.34;100.00;101532.97;5023833;28;20041;-76
2022/11/26 04:50:50;;;;;;;1999.90;999.90;;;;;;;7.27;100.00;101533.69;5005231;28;20040;-76
2022/11/26 04:53:20;;;;;;;1999.90;999.90;;;;;;;7.29;100.00;101549.47;5026070;28;20487;-76
2022/11/26 04:55:47;;;;;;;1999.90;999.90;;;;;;;7.28;100.00;101548.56;5025113;28;20601;-76
2022/11/26 04:58:12;;;;;;;1999.90;999.90;;;;;;;7.27;100.00;101546.81;5029258;28;20492;-75
2022/11/26 05:00:37;;;;;;;1999.90;999.90;;;;;;;7.25;100.00;101556.38;5024277;28;20034;-75
2022/11/26 05:03:03;;;;;;;1999.90;999.90;;;;;;;7.24;100.00;101552.00;5021811;28;20041;-75
2022/11/26 05:05:28;;;;;;;1999.90;999.90;;;;;;;7.25;100.00;101559.00;5026803;28;20048;-75
2022/11/26 05:07:53;;;;;;;1999.90;999.90;;;;;;;7.29;100.00;101559.97;5030866;28;20044;-75
2022/11/26 05:10:19;;;;;;;1999.90;999.90;;;;;;;7.26;100.00;101566.06;5022894;28;20030;-75
2022/11/26 05:12:44;;;;;;;1999.90;999.90;;;;;;;7.28;100.00;101563.44;5024098;28;20045;-76
2022/11/26 05:15:09;;;;;;;1999.90;999.90;;;;;;;7.33;100.00;101572.31;5023957;28;20052;-76
2022/11/26 05:17:35;;;;;;;1999.90;999.90;;;;;;;7.30;100.00;101583.63;5022659;28;20034;-75
2022/11/26 05:20:00;;;;;;;1999.90;999.90;;;;;;;7.26;100.00;101576.56;5025058;28;20034;-76
2022/11/26 05:22:26;;;;;;;1999.90;999.90;;;;;;;7.21;100.00;101572.94;5025388;28;20099;-75
2022/11/26 05:24:51;;;;;;;1999.90;999.90;;;;;;;7.31;100.00;101571.38;5022416;28;20045;-75
2022/11/26 05:27:16;;;;;;;1999.90;999.90;;;;;;;7.22;100.00;101579.94;5023925;28;20415;-76
2022/11/26 05:29:42;;;;;;;1999.90;999.90;;;;;;;7.18;100.00;101579.00;5029715;28;20373;-75
2022/11/26 05:32:07;;;;;;;1999.90;999.90;;;;;;;7.13;100.00;101580.63;5025191;28;20527;-76
2022/11/26 05:34:32;;;;;;;1999.90;999.90;;;;;;;7.17;100.00;101581.56;5029270;28;20507;-76
2022/11/26 05:36:57;;;;;;;1999.90;999.90;;;;;;;7.20;100.00;101592.13;5028831;28;20519;-75
2022/11/26 05:39:24;;;;;;;1999.90;999.90;;;;;;;7.22;100.00;101593.06;5022658;28;20531;-75
2022/11/26 05:41:49;;;;;;;1999.90;999.90;;;;;;;7.25;100.00;101595.75;5024417;28;20419;-75
2022/11/26 05:44:14;;;;;;;1999.90;999.90;;;;;;;7.22;100.00;101593.06;5025036;28;20034;-75
2022/11/26 05:46:41;;;;;;;1999.90;999.90;;;;;;;7.24;100.00;101594.00;5027426;28;20042;-75
2022/11/26 05:49:08;;;;;;;1999.90;999.90;;;;;;;7.20;100.00;101602.63;5022001;28;20092;-76
2022/11/26 05:51:33;;;;;;;1999.90;999.90;;;;;;;7.19;100.00;101596.50;5029399;28;20040;-75
2022/11/26 05:53:58;;;;;;;1999.90;999.90;;;;;;;7.20;100.00;101600.00;5026108;28;20124;-75
2022/11/26 05:56:24;;;;;;;1999.90;999.90;;;;;;;7.23;100.00;101602.72;5027281;28;20045;-75
2022/11/26 05:58:49;;;;;;;1999.90;999.90;;;;;;;7.20;100.00;101603.56;5027743;28;20072;-75
2022/11/26 06:01:14;;;;;;;1999.90;999.90;;;;;;;7.24;100.00;101607.13;5024497;28;20496;-75
2022/11/26 06:03:40;;;;;;;1999.90;999.90;;;;;;;7.31;100.00;101606.44;5024988;28;20500;-74
2022/11/26 06:06:06;;;;;;;1999.90;999.90;;;;;;;7.21;100.00;101605.31;5021743;28;20041;-75
2022/11/26 06:08:31;;;;;;;1999.90;999.90;;;;;;;7.24;100.00;101620.25;5025067;28;20091;-74
2022/11/26 06:10:57;;;;;;;1999.90;999.90;;;;;;;7.20;100.00;101619.31;5031462;28;20041;-75
2022/11/26 06:13:22;;;;;;;1999.90;999.90;;;;;;;7.20;100.00;101626.28;5029718;28;20431;-74
2022/11/26 06:15:47;;;;;;;1999.90;999.90;;;;;;;7.21;100.00;101628.06;5023284;28;20507;-74
2022/11/26 06:18:13;;;;;;;1999.90;999.90;;;;;;;7.21;100.00;101641.19;5023000;28;20067;-74
2022/11/26 06:20:38;;;;;;;1999.90;999.90;;;;;;;7.20;100.00;101632.44;5021511;28;20032;-75
2022/11/26 06:23:04;;;;;;;1999.90;999.90;;;;;;;7.22;100.00;101642.97;5028488;28;20033;-75
2022/11/26 06:25:30;;;;;;;1999.90;999.90;;;;;;;7.30;100.00;101633.53;5026638;28;20083;-75
2022/11/26 06:27:56;;;;;;;1999.90;999.90;;;;;;;7.31;100.00;101637.94;5026024;28;20041;-74
2022/11/26 06:30:21;;;;;;;1999.90;999.90;;;;;;;7.33;100.00;101641.47;5025595;28;20036;-75
2022/11/26 06:32:47;;;;;;;1999.90;999.90;;;;;;;7.31;100.00;101643.22;5028748;28;20384;-74
2022/11/26 06:35:13;;;;;;;1999.90;999.90;;;;;;;7.31;100.00;101647.53;5024637;28;20496;-74
2022/11/26 06:37:38;;;;;;;1999.90;999.90;;;;;;;7.37;100.00;101652.97;5027092;28;20025;-75
2022/11/26 06:40:04;;;;;;;1999.90;999.90;;;;;;;7.33;100.00;101646.72;5021543;28;20391;-75
2022/11/26 06:42:30;;;;;;;1999.90;999.90;;;;;;;7.39;100.00;101656.53;5022425;28;20049;-74
2022/11/26 06:44:55;;;;;;;1999.90;999.90;;;;;;;7.41;100.00;101662.69;5020980;28;20069;-74
2022/11/26 06:47:21;;;;;;;1999.90;999.90;;;;;;;7.41;100.00;101665.31;5021001;28;20121;-75
2022/11/26 06:49:46;;;;;;;1999.90;999.90;;;;;;;7.43;100.00;101658.38;5020875;28;20045;-75
2022/11/26 06:52:12;;;;;;;1999.90;999.90;;;;;;;7.41;100.00;101663.59;5020110;28;20038;-75
2022/11/26 06:54:38;;;;;;;1999.90;999.90;;;;;;;7.44;100.00;101671.53;5025705;28;20037;-74
2022/11/26 06:57:03;;;;;;;1999.90;999.90;;;;;;;7.50;100.00;101675.19;5020367;28;20083;-75
2022/11/26 06:59:28;;;;;;;1999.90;999.90;;;;;;;7.49;100.00;101678.63;5022777;28;20183;-75
2022/11/26 07:01:54;;;;;;;1999.90;999.90;;;;;;;7.46;100.00;101680.31;5020911;28;20408;-75
2022/11/26 07:04:19;;;;;;;1999.90;999.90;;;;;;;7.51;100.00;101693.59;5023537;28;20136;-75
2022/11/26 07:06:44;;;;;;;1999.90;999.90;;;;;;;7.51;100.00;101685.69;5028439;28;20045;-75
2022/11/26 07:09:11;;;;;;;1999.90;999.90;;;;;;;7.56;100.00;101696.34;5023540;28;20040;-75
2022/11/26 07:11:37;;;;;;;1999.90;999.90;;;;;;;7.62;100.00;101696.47;5023617;28;20036;-75
2022/11/26 07:14:04;;;;;;;1999.90;999.90;;;;;;;7.59;100.00;101696.41;5023137;28;20156;-75
2022/11/26 07:16:29;;;;;;;1999.90;999.90;;;;;;;7.63;100.00;101698.28;5021412;28;20492;-75
2022/11/26 07:18:57;;;;;;;1999.90;999.90;;;;;;;7.66;100.00;101699.22;5023627;28;20059;-75
2022/11/26 07:21:23;;;;;;;1999.90;999.90;;;;;;;7.68;100.00;101708.03;5020029;28;20042;-75
2022/11/26 07:23:49;;;;;;;1999.90;999.90;;;;;;;7.68;100.00;101704.53;5019938;28;20042;-75
2022/11/26 07:26:17;;;;;;;1999.90;999.90;;;;;;;7.71;100.00;101707.22;5022071;28;20033;-75
2022/11/26 07:28:42;;;;;;;1999.90;999.90;;;;;;;7.66;100.00;101711.47;5022731;28;20432;-75
2022/11/26 07:31:13;;;;;;;1999.90;999.90;;;;;;;7.69;100.00;101708.91;5019664;28;20124;-75
2022/11/26 07:33:38;;;;;;;1999.90;999.90;;;;;;;7.73;100.00;101718.66;5019761;28;20038;-75
2022/11/26 07:36:06;;;;;;;1999.90;999.90;;;;;;;7.71;100.00;101723.00;5022502;28;20408;-75
2022/11/26 07:38:32;;;;;;;1999.90;999.90;;;;;;;7.74;100.00;101724.81;5020452;28;20038;-75
2022/11/26 07:41:05;;;;;;;1999.90;999.90;;;;;;;7.80;100.00;101723.19;5024706;28;20033;-74
2022/11/26 07:43:36;;;;;;;1999.90;999.90;;;;;;;7.78;100.00;101724.94;5021581;28;20034;-75
2022/11/26 07:46:03;;;;;;;1999.90;999.90;;;;;;;7.85;100.00;101725.94;5021593;28;20099;-75
2022/11/26 07:48:30;;;;;;;1999.90;999.90;;;;;;;7.75;100.00;101724.81;5022793;28;20049;-75
2022/11/26 07:50:55;;;;;;;1999.90;999.90;;;;;;;7.70;100.00;101729.06;5024630;28;20141;-74
2022/11/26 07:53:21;;;;;;;1999.90;999.90;;;;;;;7.70;100.00;101731.69;5023738;28;20485;-75
2022/11/26 07:55:46;;;;;;;1999.90;999.90;;;;;;;7.78;100.00;101724.94;5027115;28;20787;-75
2022/11/26 07:58:11;;;;;;;1999.90;999.90;;;;;;;7.85;100.00;101732.09;5028031;28;20553;-75
2022/11/26 08:00:37;;;;;;;1999.90;999.90;;;;;;;7.92;100.00;101733.13;5022342;28;22380;-75
2022/11/26 08:03:02;;;;;;;1999.90;999.90;;;;;;;7.98;100.00;101745.53;5021755;28;20539;-75
2022/11/26 08:05:27;;;;;;;1999.90;999.90;;;;;;;8.01;100.00;101738.59;5022622;28;20488;-75
2022/11/26 08:07:53;;;;;;;1999.90;999.90;;;;;;;8.07;100.00;101743.13;5031994;28;20033;-75
2022/11/26 08:10:18;;;;;;;1999.90;999.90;;;;;;;8.15;100.00;101756.44;5027932;28;20065;-75
2022/11/26 08:12:44;;;;;;;1999.90;999.90;;;;;;;8.13;100.00;101748.53;5029945;28;20033;-75
2022/11/26 08:15:10;;;;;;;1999.90;999.90;;;;;;;8.07;100.00;101754.53;5006340;28;20037;-75
2022/11/26 08:17:35;;;;;;;1999.90;999.90;;;;;;;8.10;100.00;101759.84;5026389;28;20041;-75
2022/11/26 08:20:00;;;;;;;1999.90;999.90;;;;;;;8.06;100.00;101757.13;5026720;28;20040;-75
2022/11/26 08:22:28;;;;;;;1999.90;999.90;;;;;;;8.02;100.00;101756.16;5027086;28;20025;-75
2022/11/26 08:24:54;;;;;;;1999.90;999.90;;;;;;;8.03;100.00;101765.81;5029840;28;20036;-75
2022/11/26 08:27:19;;;;;;;1999.90;999.90;;;;;;;8.15;100.00;101765.25;5025819;28;20030;-75
2022/11/26 08:29:44;;;;;;;1999.90;999.90;;;;;;;8.07;100.00;101770.31;5026269;28;20120;-75
2022/11/26 08:32:10;;;;;;;1999.90;999.90;;;;;;;8.11;100.00;101766.88;5027662;28;20041;-75
2022/11/26 08:34:35;;;;;;;1999.90;999.90;;;;;;;8.17;100.00;101771.41;5031781;28;20040;-75
2022/11/26 08:37:00;;;;;;;1999.90;999.90;;;;;;;8.22;100.00;101771.50;5027311;28;20101;-75
2022/11/26 08:39:26;;;;;;;1999.90;999.90;;;;;;;8.21;100.00;101778.53;5029106;28;20028;-75
2022/11/26 08:41:52;;;;;;;1999.90;999.90;;;;;;;8.25;100.00;101775.13;5032046;28;20060;-75
2022/11/26 08:44:17;;;;;;;1999.90;999.90;;;;;;;8.28;100.00;101777.81;5026588;28;20053;-75
2022/11/26 08:46:42;;;;;;;1999.90;999.90;;;;;;;8.26;100.00;101781.25;5026218;28;20087;-75
2022/11/26 08:49:11;;;;;;;1999.90;999.90;;;;;;;8.37;100.00;101789.41;5026366;28;20069;-75
2022/11/26 08:51:36;;;;;;;1999.90;999.90;;;;;;;8.38;100.00;101801.69;5027072;28;20033;-75
2022/11/26 08:54:02;;;;;;;1999.90;999.90;;;;;;;8.50;100.00;101800.25;5026292;28;20095;-75
2022/11/26 08:56:28;;;;;;;1999.90;999.90;;;;;;;8.49;100.00;101800.25;5022226;28;20041;-75
2022/11/26 08:58:53;;;;;;;1999.90;999.90;;;;;;;8.46;100.00;101800.16;5028565;28;20041;-75
2022/11/26 09:01:23;;;;;;;1999.90;999.90;;;;;;;8.35;100.00;101806.00;5022852;28;20044;-77
2022/11/26 09:03:53;;;;;;;1999.90;999.90;;;;;;;8.39;100.00;101808.75;5022639;28;20053;-75
2022/11/26 09:06:21;;;;;;;1999.90;999.90;;;;;;;8.40;100.00;101807.91;5031124;28;20045;-76
2022/11/26 09:11:33;;;;;;;1999.90;999.90;;;;;;;8.49;100.00;101810.78;5025469;28;20496;-75
2022/11/26 09:13:59;;;;;;;1999.90;999.90;;;;;;;8.52;100.00;101811.72;5024830;28;20029;-75
2022/11/26 09:16:25;;;;;;;1999.90;999.90;;;;;;;8.52;100.00;101813.47;5028437;28;20377;-76
2022/11/26 09:18:51;;;;;;;1999.90;999.90;;;;;;;8.48;100.00;101817.75;5025500;28;20040;-75
2022/11/26 09:21:17;;;;;;;1999.90;999.90;;;;;;;8.48;100.00;101819.50;5027204;28;20548;-76
2022/11/26 09:23:42;;;;;;;1999.90;999.90;;;;;;;8.48;100.00;101820.38;5024854;28;20034;-75
2022/11/26 09:26:08;;;;;;;1999.90;999.90;;;;;;;8.46;100.00;101826.47;5023520;28;20487;-76
2022/11/26 09:28:33;;;;;;;1999.90;999.90;;;;;;;8.50;100.00;101836.22;5026489;28;20040;-75
2022/11/26 09:31:00;;;;;;;1999.90;999.90;;;;;;;8.46;100.00;101836.97;5027301;28;20124;-76
2022/11/26 09:33:26;;;;;;;1999.90;999.90;;;;;;;8.47;100.00;101839.66;5024752;28;20414;-75
2022/11/26 09:35:51;;;;;;;1999.90;999.90;;;;;;;8.51;100.00;101833.63;5022154;28;20041;-76
2022/11/26 09:38:17;;;;;;;1999.90;999.90;;;;;;;8.55;100.00;101839.84;5031338;28;20036;-75
2022/11/26 09:40:54;;;;;;;1999.90;999.90;;;;;;;8.55;100.00;101843.34;5021709;28;20048;-75
2022/11/26 09:44:08;;;;;;;1999.90;999.90;;;;;;;8.53;100.00;101844.19;5022823;28;20040;-76
2022/11/26 09:46:58;;;;;;;1999.90;999.90;;;;;;;8.58;100.00;101853.06;5029431;28;20048;-76
2022/11/26 09:49:24;;;;;;;1999.90;999.90;;;;;;;8.54;100.00;101840.69;5024708;28;20037;-76
2022/11/26 09:51:53;;;;;;;1999.90;999.90;;;;;;;8.57;100.00;101843.41;5028769;28;20029;-76
2022/11/26 09:54:22;;;;;;;1999.90;999.90;;;;;;;8.62;100.00;101844.41;5033269;28;21253;-76
2022/11/26 09:56:53;;;;;;;1999.90;999.90;;;;;;;8.58;100.00;101850.44;5023246;28;20388;-76
2022/11/26 09:59:20;;;;;;;1999.90;999.90;;;;;;;8.47;100.00;101850.19;5026801;28;20586;-76
2022/11/26 10:01:45;;;;;;;1999.90;999.90;;;;;;;8.59;100.00;101862.72;5021521;28;20404;-76
2022/11/26 10:04:22;;;;;;;1999.90;999.90;;;;;;;8.62;100.00;101859.28;5024510;28;20029;-75
2022/11/26 10:07:11;;;;;;;1999.90;999.90;;;;;;;8.68;100.00;101854.19;5029858;28;20090;-76
2022/11/26 10:09:47;;;;;;;1999.90;999.90;;;;;;;8.67;100.00;101860.28;5024368;28;20034;-76
2022/11/26 10:12:37;;;;;;;1999.90;999.90;;;;;;;8.66;100.00;101858.50;5022954;28;20030;-76
2022/11/26 10:15:17;;;;;;;1999.90;999.90;;;;;;;8.62;100.00;101861.91;5021871;28;20091;-76
2022/11/26 10:18:13;;;;;;;1999.90;999.90;;;;;;;8.62;100.00;101864.53;5028600;28;20056;-76
2022/11/26 10:20:50;;;;;;;1999.90;999.90;;;;;;;8.59;100.00;101872.38;5024119;28;20029;-76
2022/11/26 10:23:21;;;;;;;1999.90;999.90;;;;;;;8.57;100.00;101872.34;5022984;28;20042;-76
2022/11/26 10:25:57;;;;;;;1999.90;999.90;;;;;;;8.67;100.00;101874.34;5020389;28;20041;-76
2022/11/26 10:28:33;;;;;;;1999.90;999.90;;;;;;;8.84;100.00;101865.94;5006997;28;20561;-76
2022/11/26 10:31:04;;;;;;;1999.90;999.90;;;;;;;8.85;100.00;101883.50;5025377;28;20056;-76
2022/11/26 10:34:09;;;;;;;1999.90;999.90;;;;;;;8.84;100.00;101876.47;5028476;28;20033;-76
2022/11/26 10:36:38;;;;;;;1999.90;999.90;;;;;;;8.69;100.00;101862.09;5024502;28;20029;-76
2022/11/26 10:39:04;;;;;;;1999.90;999.90;;;;;;;8.63;100.00;101872.47;5023427;28;20037;-76
2022/11/26 10:41:34;;;;;;;1999.90;999.90;;;;;;;8.68;100.00;101873.47;5022681;28;20036;-76
2022/11/26 10:44:27;;;;;;;1999.90;999.90;;;;;;;8.55;100.00;101874.94;5019931;28;20044;-76
2022/11/26 10:46:53;;;;;;;1999.90;999.90;;;;;;;8.48;100.00;101880.91;5023004;28;20036;-76
2022/11/26 10:49:23;;;;;;;1999.90;999.90;;;;;;;8.51;100.00;101877.44;5023913;28;20400;-76
2022/11/26 10:51:50;;;;;;;1999.90;999.90;;;;;;;8.54;100.00;101882.78;5019726;28;20136;-76
2022/11/26 10:54:28;;;;;;;1999.90;999.90;;;;;;;8.54;100.00;101882.78;5025474;28;20033;-76
2022/11/26 10:56:54;;;;;;;1999.90;999.90;;;;;;;8.42;100.00;101888.66;5020084;28;20148;-76